Terminal Aerodrome Forecast
Issued by NWS Mt. Holly, NJ

Home | Current Version | Previous Version | Text Only | Print | Product List | Glossary On
Versions: 1 2 3 4 5 6 7 8 9 10 11 12 13 14 15 16 17 18 19
000
FTUS41 KPHI 311700
TAFABE
TAF
KABE 311737Z 3118/0118 09005KT P6SM SCT045
     FM312000 06005KT P6SM OVC050
     FM010400 04005KT P6SM -RA OVC025
      TEMPO 0107/0111 3SM RA BKN009
     FM011100 04010G18KT 5SM -RA OVC020=

USA.gov is the U.S. government's official web portal to all federal, state and local government web resources and services.